Urb Bella Vista Estates, Puerto Rico
Current Conditions -  °F | °C
As of 1:50 AM on Wednesday 28 Jan 2015 (Local Time) from TJPS Reporting Station
Scattered Clouds Scattered Clouds  
Wind Chill: 73°   Ceiling: Unl
Heat Index: 73°   Visibility: 8mi
Dew Point: 68°   Wind: 0mph
Humidity: 83%   Direction: NA
Pressure: 29.99"   Gusts: NA
Location:  18.0836°N, 66.3566°W
Report Text: TJPS 280550Z 00000KT 8SM FEW020 SCT050 23/20 A2999
Loading
Personal Weather Stations






























Interactive Weather Map New forecast layout! Learn more

10-Day Weather Forecast

Advertisements
Track Severe Weather on mobile